Skip Navigation LinksHome page > Weather > Current weather Skip Navigation Links

Current Weather

Chicago O'Hare Intl, Chicago

For information only: do not use for flight planning or navigation.
Latest weather
Observation time Thursday, April 24, 2014 8:51 PM CDT
Local time Thursday, April 24, 2014 9:31 PM CDT
Flight conditions Visual Meteorological Conditions
Winds
Wind direction Southeast (130°)
Wind speed 17 mph
Visibility 10 mi.
Present weather light rain
Sky condition
Ceiling 7,500 ft. overcast
Cloud layer overcast 7,500 ft.
Temperature 56°F
Dewpoint 37°F
Altimeter 29.70 in.Hg
Precipitation
Precipitation last hour 0.02 in.
Derived measurements
Relative humidity 49%
Density altitude 165 ft.
Sea-level pressure 29.70 in.Hg
Remarks
System requires maintenance.
Automated weather observing station with precipitation discriminator.
METAR KORD 250151Z 13015KT 10SM -RA OVC075 13/03 A2970 RMK AO2 SLP058 P0002 T01330028 $

Settings

Location code

InnerDrive.Weather 4.0.4869.0 Release CLR 4.0.30319.18449
Copyright ©2013 Inner Drive Technology. All rights reserved. Portions Copyright ©1986-2013 David Braverman.

Find weather

Site navigation


Skip Navigation Links

Place info

Page info

PayPal - The safer, easier way to pay online!

Return home.

Copyright ©2014 Inner Drive Technology. Purveyors of fine, hand-crafted computer software. Page printed 2014-04-25T02:31:46 UTC.